createdAt,value
2017-08-02T00:00:12.987Z,979.39
2017-08-02T00:01:22.938Z,979.41
2017-08-02T00:02:33.223Z,979.41
2017-08-02T00:03:43.182Z,979.34
2017-08-02T00:04:53.133Z,979.37
2017-08-02T00:06:02.773Z,979.34
2017-08-02T00:07:12.727Z,979.35
2017-08-02T00:08:22.681Z,979.31
2017-08-02T00:09:32.952Z,979.29
2017-08-02T00:10:42.916Z,979.35
2017-08-02T00:11:53.196Z,979.32
2017-08-02T00:13:03.463Z,979.3
2017-08-02T00:14:13.732Z,979.32
2017-08-02T00:15:24.002Z,979.27
2017-08-02T00:16:34.268Z,979.31
2017-08-02T00:17:44.538Z,979.31
2017-08-02T00:18:54.814Z,979.33
2017-08-02T00:20:05.084Z,979.3
2017-08-02T00:21:15.038Z,979.33
2017-08-02T00:22:24.680Z,979.26
2017-08-02T00:23:34.948Z,979.3
2017-08-02T00:24:45.212Z,979.26
2017-08-02T00:25:55.169Z,979.22
2017-08-02T00:27:05.439Z,979.22
2017-08-02T00:28:15.714Z,979.23
2017-08-02T00:29:25.985Z,979.22
2017-08-02T00:30:35.942Z,979.19
2017-08-02T00:31:46.222Z,979.23
2017-08-02T00:32:56.493Z,979.23
2017-08-02T00:34:06.768Z,979.18
2017-08-02T00:35:16.409Z,979.18
2017-08-02T00:36:26.368Z,979.19
2017-08-02T00:37:36.316Z,979.17
2017-08-02T00:38:46.582Z,979.17
2017-08-02T00:39:56.846Z,979.17
2017-08-02T00:41:06.806Z,979.19
2017-08-02T00:42:17.075Z,979.21
2017-08-02T00:43:27.343Z,979.14
2017-08-02T00:44:37.299Z,979.22
2017-08-02T00:45:47.573Z,979.22
2017-08-02T00:46:57.843Z,979.18
2017-08-02T00:48:07.794Z,979.23
2017-08-02T00:49:18.068Z,979.22
2017-08-02T00:50:28.335Z,979.17
2017-08-02T00:51:38.603Z,979.19
2017-08-02T00:52:48.561Z,979.18
2017-08-02T00:53:58.519Z,979.19
2017-08-02T00:55:08.790Z,979.21
2017-08-02T00:56:19.063Z,979.24
2017-08-02T00:57:29.330Z,979.19
2017-08-02T00:58:39.603Z,979.19
2017-08-02T00:59:49.867Z,979.21
2017-08-02T01:00:59.195Z,979.16
2017-08-02T01:02:09.154Z,979.2
2017-08-02T01:03:19.434Z,979.17
2017-08-02T01:04:29.388Z,979.2
2017-08-02T01:05:39.351Z,979.18
2017-08-02T01:06:49.634Z,979.16
2017-08-02T01:07:59.585Z,979.17
2017-08-02T01:09:09.854Z,979.18
2017-08-02T01:10:20.123Z,979.2
2017-08-02T01:11:30.083Z,979.2
2017-08-02T01:12:40.352Z,979.18
2017-08-02T01:13:49.992Z,979.18
2017-08-02T01:15:00.258Z,979.19
2017-08-02T01:16:10.230Z,979.16
2017-08-02T01:17:20.501Z,979.19
2017-08-02T01:18:30.770Z,979.2
2017-08-02T01:19:40.725Z,979.19
2017-08-02T01:20:50.997Z,979.18
2017-08-02T01:22:01.269Z,979.15
2017-08-02T01:23:11.539Z,979.15
2017-08-02T01:24:21.808Z,979.19
2017-08-02T01:25:31.777Z,979.17
2017-08-02T01:26:42.045Z,979.16
2017-08-02T01:27:52.314Z,979.15
2017-08-02T01:29:02.585Z,979.18
2017-08-02T01:30:12.856Z,979.17
2017-08-02T01:31:22.515Z,979.14
2017-08-02T01:32:32.778Z,979.12
2017-08-02T01:33:42.425Z,979.11
2017-08-02T01:34:52.697Z,979.13
2017-08-02T01:36:02.969Z,979.11
2017-08-02T01:37:12.925Z,979.08
2017-08-02T01:38:22.879Z,979.1
2017-08-02T01:39:33.146Z,979.1
2017-08-02T01:40:42.787Z,979.07
2017-08-02T01:41:53.054Z,979.06
2017-08-02T01:43:03.322Z,979.06
2017-08-02T01:44:13.599Z,979.05
2017-08-02T01:45:23.563Z,979.02
2017-08-02T01:46:33.832Z,979.03
2017-08-02T01:47:44.103Z,979.01
2017-08-02T01:48:54.060Z,978.98
2017-08-02T01:50:04.333Z,978.95
2017-08-02T01:51:14.284Z,978.96
2017-08-02T01:52:24.550Z,978.95
2017-08-02T01:53:34.508Z,978.87
2017-08-02T01:54:44.466Z,978.85
2017-08-02T01:55:54.421Z,978.82
2017-08-02T01:57:04.689Z,978.78
2017-08-02T01:58:14.642Z,978.77
2017-08-02T01:59:24.917Z,978.75
2017-08-02T02:00:35.191Z,978.73
2017-08-02T02:01:45.468Z,978.67
2017-08-02T02:02:55.427Z,978.68
2017-08-02T02:04:05.380Z,978.67
2017-08-02T02:05:15.644Z,978.67
2017-08-02T02:06:25.911Z,978.69
2017-08-02T02:07:36.186Z,978.71
2017-08-02T02:08:46.459Z,978.7
2017-08-02T02:09:56.731Z,978.72
2017-08-02T02:11:06.693Z,978.68
2017-08-02T02:12:16.962Z,978.7
2017-08-02T02:13:26.604Z,978.67
2017-08-02T02:14:36.871Z,978.66
2017-08-02T02:15:46.824Z,978.67
2017-08-02T02:16:57.094Z,978.65
2017-08-02T02:18:07.372Z,978.64
2017-08-02T02:19:17.639Z,978.59
2017-08-02T02:20:27.904Z,978.6
2017-08-02T02:21:38.169Z,978.59
2017-08-02T02:22:48.437Z,978.58
2017-08-02T02:23:58.705Z,978.54
2017-08-02T02:25:08.661Z,978.59
2017-08-02T02:26:18.927Z,978.51
2017-08-02T02:27:29.196Z,978.53
2017-08-02T02:28:39.463Z,978.53
2017-08-02T02:29:49.425Z,978.49
2017-08-02T02:30:59.718Z,978.51
2017-08-02T02:32:09.676Z,978.49
2017-08-02T02:33:19.633Z,978.5
2017-08-02T02:34:29.609Z,978.52
2017-08-02T02:35:39.883Z,978.55
2017-08-02T02:36:50.153Z,978.51
2017-08-02T02:37:59.793Z,978.49
2017-08-02T02:39:09.752Z,978.51
2017-08-02T02:40:19.723Z,978.55
2017-08-02T02:41:29.680Z,978.55
2017-08-02T02:42:39.953Z,978.57
2017-08-02T02:43:49.902Z,978.59
2017-08-02T02:44:59.548Z,978.6
2017-08-02T02:46:09.304Z,978.61
2017-08-02T02:47:19.272Z,978.59
2017-08-02T02:48:29.546Z,978.58
2017-08-02T02:49:39.810Z,978.56
2017-08-02T02:50:49.769Z,978.6
2017-08-02T02:51:59.723Z,978.59
2017-08-02T02:53:09.371Z,978.6
2017-08-02T02:54:19.637Z,978.6
2017-08-02T02:55:29.903Z,978.62
2017-08-02T02:56:40.173Z,978.59
2017-08-02T02:57:50.128Z,978.6
2017-08-02T02:59:00.401Z,978.6
2017-08-02T03:00:10.668Z,978.61
2017-08-02T03:01:20.936Z,978.61
2017-08-02T03:02:31.199Z,978.52
2017-08-02T03:03:40.838Z,978.54
2017-08-02T03:04:51.109Z,978.55
2017-08-02T03:06:01.060Z,978.54
2017-08-02T03:07:11.332Z,978.55
2017-08-02T03:08:21.616Z,978.44
2017-08-02T03:09:31.570Z,978.44
2017-08-02T03:10:41.835Z,978.41
2017-08-02T03:11:51.789Z,978.41
2017-08-02T03:13:02.059Z,978.42
2017-08-02T03:14:12.330Z,978.42
2017-08-02T03:15:22.604Z,978.4
2017-08-02T03:16:32.582Z,978.41
2017-08-02T03:17:42.850Z,978.44
2017-08-02T03:18:53.119Z,978.43
2017-08-02T03:20:03.388Z,978.42
2017-08-02T03:21:13.403Z,978.44
2017-08-02T03:22:23.361Z,978.41
2017-08-02T03:23:33.633Z,978.45
2017-08-02T03:24:43.903Z,978.45
2017-08-02T03:25:54.197Z,978.48
2017-08-02T03:27:04.473Z,978.47
2017-08-02T03:28:14.743Z,978.47
2017-08-02T03:29:24.696Z,978.46
2017-08-02T03:30:34.960Z,978.45
2017-08-02T03:31:45.252Z,978.46
2017-08-02T03:32:54.888Z,978.43
2017-08-02T03:34:04.840Z,978.44
2017-08-02T03:35:15.110Z,978.4
2017-08-02T03:36:25.389Z,978.35
2017-08-02T03:37:35.661Z,978.35
2017-08-02T03:38:45.940Z,978.32
2017-08-02T03:39:55.899Z,978.36
2017-08-02T03:41:05.542Z,978.34
2017-08-02T03:42:14.870Z,978.36
2017-08-02T03:43:24.822Z,978.38
2017-08-02T03:44:35.096Z,978.4
2017-08-02T03:45:45.366Z,978.39
2017-08-02T03:46:55.649Z,978.44
2017-08-02T03:48:05.919Z,978.41
2017-08-02T03:49:16.200Z,978.39
2017-08-02T03:50:26.468Z,978.38
2017-08-02T03:51:36.418Z,978.4
2017-08-02T03:52:46.373Z,978.41
2017-08-02T03:53:56.650Z,978.44
2017-08-02T03:55:06.918Z,978.46
2017-08-02T03:56:17.189Z,978.44
2017-08-02T03:57:27.459Z,978.45
2017-08-02T03:58:37.408Z,978.42
2017-08-02T03:59:47.677Z,978.42
2017-08-02T04:00:57.959Z,978.41
2017-08-02T04:02:08.231Z,978.43
2017-08-02T04:03:17.559Z,978.43
2017-08-02T04:04:27.830Z,978.44
2017-08-02T04:05:38.108Z,978.42
2017-08-02T04:06:48.385Z,978.43
2017-08-02T04:07:58.024Z,978.47
2017-08-02T04:09:07.980Z,978.45
2017-08-02T04:10:18.255Z,978.46
2017-08-02T04:11:28.214Z,978.46
2017-08-02T04:12:38.489Z,978.48
2017-08-02T04:13:48.764Z,978.5
2017-08-02T04:14:59.035Z,978.48
2017-08-02T04:16:09.301Z,978.5
2017-08-02T04:17:19.575Z,978.49
2017-08-02T04:18:29.848Z,978.43
2017-08-02T04:19:39.802Z,978.46
2017-08-02T04:20:50.070Z,978.43
2017-08-02T04:22:00.026Z,978.47
2017-08-02T04:23:09.981Z,978.5
2017-08-02T04:24:20.272Z,978.51
2017-08-02T04:25:30.545Z,978.49
2017-08-02T04:26:40.501Z,978.49
2017-08-02T04:27:50.465Z,978.49
2017-08-02T04:29:00.426Z,978.52
2017-08-02T04:30:10.693Z,978.46
2017-08-02T04:31:20.647Z,978.5
2017-08-02T04:32:30.599Z,978.53
2017-08-02T04:33:40.866Z,978.51
2017-08-02T04:34:51.133Z,978.51
2017-08-02T04:36:01.087Z,978.46
2017-08-02T04:37:11.366Z,978.49
2017-08-02T04:38:21.647Z,978.49
2017-08-02T04:39:31.918Z,978.46
2017-08-02T04:40:42.181Z,978.48
2017-08-02T04:41:52.453Z,978.47
2017-08-02T04:43:02.723Z,978.48
2017-08-02T04:44:12.996Z,978.46
2017-08-02T04:45:23.267Z,978.46
2017-08-02T04:46:33.542Z,978.39
2017-08-02T04:47:43.818Z,978.43
2017-08-02T04:48:54.085Z,978.4
2017-08-02T04:50:04.044Z,978.43
2017-08-02T04:51:14.000Z,978.4
2017-08-02T04:52:23.956Z,978.4
2017-08-02T04:53:33.912Z,978.41
2017-08-02T04:54:43.905Z,978.44
2017-08-02T04:55:53.859Z,978.43
2017-08-02T04:57:04.139Z,978.45
2017-08-02T04:58:14.404Z,978.41
2017-08-02T04:59:24.676Z,978.38
2017-08-02T05:00:34.003Z,978.4
2017-08-02T05:01:44.276Z,978.42
2017-08-02T05:02:54.237Z,978.36
2017-08-02T05:04:04.203Z,978.41
2017-08-02T05:05:14.165Z,978.42
2017-08-02T05:06:24.122Z,978.39
2017-08-02T05:07:34.392Z,978.4
2017-08-02T05:08:44.668Z,978.4
2017-08-02T05:09:54.941Z,978.36
2017-08-02T05:11:05.213Z,978.37
2017-08-02T05:12:15.481Z,978.38
2017-08-02T05:13:25.455Z,978.43
2017-08-02T05:14:35.729Z,978.39
2017-08-02T05:15:45.679Z,978.35
2017-08-02T05:16:55.950Z,978.32
2017-08-02T05:18:06.223Z,978.34
2017-08-02T05:19:16.192Z,978.35
2017-08-02T05:20:26.465Z,978.38
2017-08-02T05:21:36.738Z,978.36
2017-08-02T05:22:47.012Z,978.41
2017-08-02T05:23:56.968Z,978.37
2017-08-02T05:25:06.922Z,978.37
2017-08-02T05:26:17.204Z,978.33
2017-08-02T05:27:27.474Z,978.32
2017-08-02T05:28:37.744Z,978.34
2017-08-02T05:29:48.024Z,978.38
2017-08-02T05:30:58.295Z,978.37
2017-08-02T05:32:08.573Z,978.37
2017-08-02T05:33:18.846Z,978.35
2017-08-02T05:34:29.125Z,978.34
2017-08-02T05:35:39.402Z,978.33
2017-08-02T05:36:49.672Z,978.3
2017-08-02T05:37:59.637Z,978.33
2017-08-02T05:39:09.912Z,978.32
2017-08-02T05:40:20.182Z,978.33
2017-08-02T05:41:30.451Z,978.35
2017-08-02T05:42:40.725Z,978.35
2017-08-02T05:43:50.680Z,978.28
2017-08-02T05:45:00.639Z,978.28
2017-08-02T05:46:10.605Z,978.29
2017-08-02T05:47:20.883Z,978.3
2017-08-02T05:48:31.173Z,978.29
2017-08-02T05:49:41.448Z,978.33
2017-08-02T05:50:51.406Z,978.3
2017-08-02T05:52:01.685Z,978.31
2017-08-02T05:53:11.954Z,978.33
2017-08-02T05:54:22.223Z,978.33
2017-08-02T05:55:32.496Z,978.33
2017-08-02T05:56:42.770Z,978.37
2017-08-02T05:57:53.053Z,978.3
2017-08-02T05:59:02.722Z,978.35
2017-08-02T06:00:12.996Z,978.33
2017-08-02T06:01:23.273Z,978.32
2017-08-02T06:02:33.233Z,978.31
2017-08-02T06:03:43.199Z,978.34
2017-08-02T06:04:53.154Z,978.29
2017-08-02T06:06:03.426Z,978.29
2017-08-02T06:07:13.700Z,978.28
2017-08-02T06:08:23.980Z,978.29
2017-08-02T06:09:33.933Z,978.3
2017-08-02T06:10:44.211Z,978.26
2017-08-02T06:11:54.166Z,978.27
2017-08-02T06:13:04.446Z,978.32
2017-08-02T06:14:14.416Z,978.32
2017-08-02T06:15:24.681Z,978.38
2017-08-02T06:16:34.644Z,978.37
2017-08-02T06:17:44.914Z,978.32
2017-08-02T06:18:55.184Z,978.3
2017-08-02T06:20:04.828Z,978.32
2017-08-02T06:21:15.135Z,978.33
2017-08-02T06:22:25.580Z,978.35
2017-08-02T06:23:35.544Z,978.32
2017-08-02T06:24:46.056Z,978.33
2017-08-02T06:25:56.337Z,978.31
2017-08-02T06:27:06.294Z,978.34
2017-08-02T06:28:16.253Z,978.35
2017-08-02T06:29:26.212Z,978.36
2017-08-02T06:30:36.196Z,978.33
2017-08-02T06:31:46.166Z,978.29
2017-08-02T06:32:56.442Z,978.28
2017-08-02T06:34:06.739Z,978.28
2017-08-02T06:35:16.698Z,978.27
2017-08-02T06:36:26.973Z,978.26
2017-08-02T06:37:37.247Z,978.25
2017-08-02T06:38:47.516Z,978.29
2017-08-02T06:39:57.786Z,978.3
2017-08-02T06:41:08.072Z,978.29
2017-08-02T06:42:18.058Z,978.32
2017-08-02T06:43:28.340Z,978.33
2017-08-02T06:44:38.617Z,978.29
2017-08-02T06:45:48.887Z,978.32
2017-08-02T06:46:58.842Z,978.29
2017-08-02T06:48:09.124Z,978.31
2017-08-02T06:49:19.079Z,978.33
2017-08-02T06:50:29.036Z,978.29
2017-08-02T06:51:39.305Z,978.25
2017-08-02T06:52:49.589Z,978.27
2017-08-02T06:53:59.878Z,978.24
2017-08-02T06:55:09.837Z,978.24
2017-08-02T06:56:19.792Z,978.24
2017-08-02T06:57:29.755Z,978.26
2017-08-02T06:58:39.712Z,978.25
2017-08-02T06:59:49.677Z,978.23
2017-08-02T07:00:59.946Z,978.21
2017-08-02T07:02:09.906Z,978.23
2017-08-02T07:03:19.864Z,978.2
2017-08-02T07:04:30.135Z,978.23
2017-08-02T07:05:40.409Z,978.23
2017-08-02T07:06:50.686Z,978.21
2017-08-02T07:08:00.960Z,978.24
2017-08-02T07:09:10.922Z,978.22
2017-08-02T07:10:21.196Z,978.23
2017-08-02T07:11:31.157Z,978.21
2017-08-02T07:12:41.428Z,978.18
2017-08-02T07:13:51.731Z,978.21
2017-08-02T07:15:02.008Z,978.17
2017-08-02T07:16:12.285Z,978.14
2017-08-02T07:17:22.557Z,978.18
2017-08-02T07:18:32.524Z,978.17
2017-08-02T07:19:42.494Z,978.16
2017-08-02T07:20:52.450Z,978.17
2017-08-02T07:22:02.722Z,978.17
2017-08-02T07:23:12.699Z,978.19
2017-08-02T07:24:22.970Z,978.18
2017-08-02T07:25:32.927Z,978.14
2017-08-02T07:26:42.892Z,978.15
2017-08-02T07:27:52.847Z,978.16
2017-08-02T07:29:03.121Z,978.14
2017-08-02T07:30:12.763Z,978.14
2017-08-02T07:31:23.041Z,978.1
2017-08-02T07:32:33.313Z,978.11
2017-08-02T07:33:43.588Z,978.1
2017-08-02T07:34:53.550Z,978.09
2017-08-02T07:36:03.191Z,978.07
2017-08-02T07:37:12.839Z,978.07
2017-08-02T07:38:23.365Z,978.12
2017-08-02T07:39:33.640Z,978.09
2017-08-02T07:40:43.923Z,978.05
2017-08-02T07:41:53.880Z,978.06
2017-08-02T07:43:03.841Z,978.03
2017-08-02T07:44:16.114Z,978.01
2017-08-02T07:45:26.074Z,978.02
2017-08-02T07:46:36.344Z,978.04
2017-08-02T07:47:46.614Z,978.04
2017-08-02T07:48:56.259Z,978.03
2017-08-02T07:50:05.901Z,978.05
2017-08-02T07:51:16.175Z,978.06
2017-08-02T07:52:26.448Z,978.07
2017-08-02T07:53:36.419Z,978.02
2017-08-02T07:54:46.702Z,978.03
2017-08-02T07:55:56.973Z,978.01
2017-08-02T07:57:07.247Z,978.04
2017-08-02T07:58:17.515Z,978.06
2017-08-02T07:59:27.789Z,978.04
2017-08-02T08:00:37.434Z,978.05
2017-08-02T08:01:47.707Z,978.02
2017-08-02T08:02:57.352Z,978.02
2017-08-02T08:04:07.633Z,977.97
2017-08-02T08:05:17.593Z,978
2017-08-02T08:06:27.885Z,978.01
2017-08-02T08:07:38.155Z,978
2017-08-02T08:08:48.437Z,978.02
2017-08-02T08:09:58.708Z,978.05
2017-08-02T08:11:08.982Z,978.05
2017-08-02T08:12:18.942Z,978.05
2017-08-02T08:13:29.215Z,978.08
2017-08-02T08:14:39.482Z,978.04
2017-08-02T08:15:49.756Z,978.04
2017-08-02T08:16:59.716Z,978.07
2017-08-02T08:18:09.671Z,978.1
2017-08-02T08:19:19.948Z,978.11
2017-08-02T08:20:29.916Z,978.11
2017-08-02T08:21:40.187Z,978.12
2017-08-02T08:22:50.465Z,978.08
2017-08-02T08:24:00.743Z,978.09
2017-08-02T08:25:10.711Z,978.13
2017-08-02T08:26:20.703Z,978.14
2017-08-02T08:27:30.041Z,978.17
2017-08-02T08:28:40.319Z,978.17
2017-08-02T08:29:50.590Z,978.15
2017-08-02T08:31:00.862Z,978.15
2017-08-02T08:32:10.825Z,978.18
2017-08-02T08:33:21.106Z,978.2
2017-08-02T08:34:31.374Z,978.17
2017-08-02T08:35:41.333Z,978.15
2017-08-02T08:36:51.604Z,978.17
2017-08-02T08:38:01.577Z,978.15
2017-08-02T08:39:11.851Z,978.2
2017-08-02T08:40:22.125Z,978.18
2017-08-02T08:41:31.768Z,978.2
2017-08-02T08:42:42.041Z,978.19
2017-08-02T08:43:51.994Z,978.17
2017-08-02T08:45:01.957Z,978.16
2017-08-02T08:46:12.239Z,978.18
2017-08-02T08:47:22.530Z,978.17
2017-08-02T08:48:32.180Z,978.13
2017-08-02T08:49:42.157Z,978.17
2017-08-02T08:50:52.115Z,978.17
2017-08-02T08:52:02.075Z,978.14
2017-08-02T08:53:12.344Z,978.13
2017-08-02T08:54:22.616Z,978.13
2017-08-02T08:55:32.577Z,978.12
2017-08-02T08:56:42.847Z,978.09
2017-08-02T08:57:53.120Z,978.13
2017-08-02T08:59:03.083Z,978.07
2017-08-02T09:00:13.364Z,978.08
2017-08-02T09:01:23.634Z,978.07
2017-08-02T09:02:33.910Z,978.08
2017-08-02T09:03:43.871Z,978.08
2017-08-02T09:04:53.830Z,978.1
2017-08-02T09:06:04.100Z,978.08
2017-08-02T09:07:14.371Z,978.06
2017-08-02T09:08:24.044Z,978.04
2017-08-02T09:09:34.321Z,978.03
2017-08-02T09:10:44.277Z,978.03
2017-08-02T09:11:54.558Z,978.02
2017-08-02T09:13:04.835Z,977.99
2017-08-02T09:14:15.138Z,978
2017-08-02T09:15:25.409Z,978.06
2017-08-02T09:16:35.699Z,978.02
2017-08-02T09:17:45.975Z,978.04
2017-08-02T09:18:56.247Z,978.03
2017-08-02T09:20:06.544Z,978.02
2017-08-02T09:21:16.505Z,978.02
2017-08-02T09:22:26.482Z,977.99
2017-08-02T09:23:36.135Z,978
2017-08-02T09:24:46.096Z,977.98
2017-08-02T09:25:55.739Z,977.97
2017-08-02T09:27:05.698Z,977.98
2017-08-02T09:28:15.667Z,978
2017-08-02T09:29:25.953Z,977.99
2017-08-02T09:30:35.913Z,978
2017-08-02T09:31:45.877Z,978
2017-08-02T09:32:56.166Z,978
2017-08-02T09:34:06.442Z,977.94
2017-08-02T09:35:16.407Z,977.96
2017-08-02T09:36:26.367Z,977.95
2017-08-02T09:37:36.640Z,977.93
2017-08-02T09:38:46.916Z,977.9
2017-08-02T09:39:56.877Z,977.95
2017-08-02T09:41:06.838Z,977.94
2017-08-02T09:42:16.801Z,977.94
2017-08-02T09:43:27.075Z,977.96
2017-08-02T09:44:36.723Z,977.91
2017-08-02T09:45:46.996Z,977.88
2017-08-02T09:46:57.269Z,977.94
2017-08-02T09:48:07.540Z,977.9
2017-08-02T09:49:17.818Z,977.87
2017-08-02T09:50:28.097Z,977.88
2017-08-02T09:51:37.431Z,977.84
2017-08-02T09:52:47.716Z,977.85
2017-08-02T09:53:57.998Z,977.8
2017-08-02T09:55:07.960Z,977.79
2017-08-02T09:56:17.934Z,977.77
2017-08-02T09:57:27.899Z,977.74
2017-08-02T09:58:38.174Z,977.77
2017-08-02T09:59:48.451Z,977.74
2017-08-02T10:00:58.730Z,977.74
2017-08-02T10:02:08.999Z,977.7
2017-08-02T10:03:18.642Z,977.7
2017-08-02T10:04:28.282Z,977.71
2017-08-02T10:05:37.921Z,977.66
2017-08-02T10:06:47.876Z,977.65
2017-08-02T10:07:58.157Z,977.63
2017-08-02T10:09:08.429Z,977.64
2017-08-02T10:10:18.392Z,977.65
2017-08-02T10:11:28.038Z,977.62
2017-08-02T10:12:38.310Z,977.65
2017-08-02T10:13:48.584Z,977.63
2017-08-02T10:14:58.855Z,977.65
2017-08-02T10:16:09.152Z,977.61
2017-08-02T10:17:19.433Z,977.59
2017-08-02T10:18:29.712Z,977.61
2017-08-02T10:19:39.675Z,977.56
2017-08-02T10:20:49.639Z,977.56
2017-08-02T10:21:59.298Z,977.51
2017-08-02T10:23:09.572Z,977.52
2017-08-02T10:24:19.542Z,977.5
2017-08-02T10:25:29.819Z,977.51
2017-08-02T10:26:40.100Z,977.5
2017-08-02T10:27:50.055Z,977.45
2017-08-02T10:29:00.016Z,977.48
2017-08-02T10:30:09.971Z,977.48
2017-08-02T10:31:19.930Z,977.45
2017-08-02T10:32:29.891Z,977.49
2017-08-02T10:33:40.161Z,977.47
2017-08-02T10:34:49.809Z,977.46
2017-08-02T10:36:00.084Z,977.48
2017-08-02T10:37:09.733Z,977.5
2017-08-02T10:38:20.010Z,977.51
2017-08-02T10:39:30.289Z,977.46
2017-08-02T10:40:40.564Z,977.47
2017-08-02T10:41:50.833Z,977.48
2017-08-02T10:43:01.103Z,977.5
2017-08-02T10:44:11.066Z,977.51
2017-08-02T10:45:21.343Z,977.5
2017-08-02T10:46:30.992Z,977.54
2017-08-02T10:47:41.262Z,977.54
2017-08-02T10:48:51.233Z,977.56
2017-08-02T10:50:01.507Z,977.59
2017-08-02T10:51:11.794Z,977.59
2017-08-02T10:52:22.072Z,977.61
2017-08-02T10:53:32.034Z,977.59
2017-08-02T10:54:41.999Z,977.62
2017-08-02T10:55:52.275Z,977.61
2017-08-02T10:57:02.268Z,977.58
2017-08-02T10:58:12.225Z,977.61
2017-08-02T10:59:22.196Z,977.49
2017-08-02T11:00:31.837Z,977.46
2017-08-02T11:01:42.108Z,977.53
2017-08-02T11:02:52.066Z,977.54
2017-08-02T11:04:02.027Z,977.5
2017-08-02T11:05:11.991Z,977.4
2017-08-02T11:06:22.271Z,977.43
2017-08-02T11:07:32.230Z,977.42
2017-08-02T11:08:42.518Z,977.33
2017-08-02T11:09:52.477Z,977.31
2017-08-02T11:11:02.121Z,977.31
2017-08-02T11:12:12.084Z,977.3
2017-08-02T11:13:22.358Z,977.26
2017-08-02T11:14:34.890Z,977.23
2017-08-02T11:15:45.170Z,977.24
2017-08-02T11:16:54.826Z,977.24
2017-08-02T11:18:05.102Z,977.25
2017-08-02T11:19:15.377Z,977.29
2017-08-02T11:20:25.655Z,977.39
2017-08-02T11:21:35.618Z,977.34
2017-08-02T11:22:45.268Z,977.35
2017-08-02T11:23:55.556Z,977.36
2017-08-02T11:25:05.904Z,977.32
2017-08-02T11:26:16.182Z,977.3
2017-08-02T11:27:26.455Z,977.39
2017-08-02T11:28:36.101Z,977.41
2017-08-02T11:29:46.387Z,977.38
2017-08-02T11:30:56.656Z,977.37
2017-08-02T11:32:06.622Z,977.35
2017-08-02T11:33:16.590Z,977.36
2017-08-02T11:34:26.865Z,977.41
2017-08-02T11:35:37.141Z,977.38
2017-08-02T11:36:46.787Z,977.4
2017-08-02T11:37:56.126Z,977.4
2017-08-02T11:39:06.403Z,977.4
2017-08-02T11:40:16.049Z,977.42
2017-08-02T11:41:26.337Z,977.47
2017-08-02T11:42:36.624Z,977.49
2017-08-02T11:43:46.596Z,977.45
2017-08-02T11:44:56.564Z,977.46
2017-08-02T11:46:06.854Z,977.57
2017-08-02T11:47:16.824Z,977.61
2017-08-02T11:48:27.099Z,977.56
2017-08-02T11:49:37.379Z,977.7
2017-08-02T11:50:47.342Z,977.66
2017-08-02T11:51:56.987Z,977.66
2017-08-02T11:53:07.274Z,977.67
2017-08-02T11:54:17.240Z,977.64
2017-08-02T11:55:27.514Z,977.65
2017-08-02T11:56:37.470Z,977.6
2017-08-02T11:57:47.119Z,977.6
2017-08-02T11:58:57.397Z,977.54
2017-08-02T12:00:07.365Z,977.56
2017-08-02T12:01:17.639Z,977.5
2017-08-02T12:02:27.918Z,977.57
2017-08-02T12:03:38.194Z,977.58
2017-08-02T12:04:48.465Z,977.67
2017-08-02T12:05:58.737Z,977.64
2017-08-02T12:07:09.017Z,977.61
2017-08-02T12:08:19.288Z,977.68
2017-08-02T12:09:29.256Z,977.66
2017-08-02T12:10:39.217Z,977.69
2017-08-02T12:11:49.171Z,977.66
2017-08-02T12:12:59.127Z,977.68
2017-08-02T12:14:08.792Z,977.69
2017-08-02T12:15:18.760Z,977.72
2017-08-02T12:16:29.038Z,977.71
2017-08-02T12:17:38.994Z,977.75
2017-08-02T12:18:49.263Z,977.74
2017-08-02T12:19:58.911Z,977.73
2017-08-02T12:21:09.183Z,977.73
2017-08-02T12:22:19.462Z,977.79
2017-08-02T12:23:29.726Z,977.72
2017-08-02T12:24:39.707Z,977.76
2017-08-02T12:25:50.035Z,977.8
2017-08-02T12:27:00.002Z,977.8
2017-08-02T12:28:10.277Z,977.78
2017-08-02T12:29:20.247Z,977.79
2017-08-02T12:30:29.887Z,977.82
2017-08-02T12:31:40.160Z,977.79
2017-08-02T12:32:50.114Z,977.78
2017-08-02T12:34:00.385Z,977.82
2017-08-02T12:35:10.654Z,977.81
2017-08-02T12:36:20.923Z,977.83
2017-08-02T12:37:31.198Z,977.82
2017-08-02T12:38:41.150Z,977.8
2017-08-02T12:39:51.109Z,977.82
2017-08-02T12:41:01.067Z,977.86
2017-08-02T12:42:11.343Z,977.85
2017-08-02T12:43:20.984Z,977.82
2017-08-02T12:44:30.934Z,977.83
2017-08-02T12:45:41.210Z,977.84
2017-08-02T12:46:51.486Z,977.78
2017-08-02T12:48:01.775Z,977.74
2017-08-02T12:49:12.050Z,977.77
2017-08-02T12:50:22.320Z,977.76
2017-08-02T12:51:31.968Z,977.82
2017-08-02T12:52:41.931Z,977.81
2017-08-02T12:53:52.216Z,977.82
2017-08-02T12:55:02.500Z,977.83
2017-08-02T12:56:12.148Z,977.82
2017-08-02T12:57:22.421Z,977.77
2017-08-02T12:58:32.383Z,977.71
2017-08-02T12:59:42.659Z,977.67
2017-08-02T13:00:52.615Z,977.66
2017-08-02T13:02:02.261Z,977.66
2017-08-02T13:03:12.529Z,977.64
2017-08-02T13:04:22.495Z,977.6
2017-08-02T13:05:32.476Z,977.62
2017-08-02T13:06:42.435Z,977.65
2017-08-02T13:07:52.089Z,977.62
2017-08-02T13:09:02.370Z,977.55
2017-08-02T13:10:12.018Z,977.54
2017-08-02T13:11:22.302Z,977.58
2017-08-02T13:12:31.958Z,977.61
2017-08-02T13:13:41.312Z,977.52
2017-08-02T13:14:50.651Z,977.53
2017-08-02T13:16:00.930Z,977.52
2017-08-02T13:17:11.209Z,977.56
2017-08-02T13:18:21.176Z,977.52
2017-08-02T13:19:31.453Z,977.52
2017-08-02T13:20:41.414Z,977.53
2017-08-02T13:21:51.374Z,977.55
2017-08-02T13:23:01.412Z,977.56
2017-08-02T13:24:11.700Z,977.51
2017-08-02T13:25:21.978Z,977.51
2017-08-02T13:26:31.943Z,977.52
2017-08-02T13:27:42.230Z,977.53
2017-08-02T13:28:52.506Z,977.63
2017-08-02T13:30:02.472Z,977.55
2017-08-02T13:31:12.438Z,977.6
2017-08-02T13:32:22.730Z,977.5
2017-08-02T13:33:32.089Z,977.45
2017-08-02T13:34:42.057Z,977.48
2017-08-02T13:35:52.026Z,977.5
2017-08-02T13:37:01.997Z,977.55
2017-08-02T13:38:11.649Z,977.6
2017-08-02T13:39:21.929Z,977.54
2017-08-02T13:40:31.897Z,977.52
2017-08-02T13:41:41.868Z,977.51
2017-08-02T13:42:52.156Z,977.52
2017-08-02T13:44:02.444Z,977.49
2017-08-02T13:45:12.422Z,977.48
2017-08-02T13:46:22.708Z,977.42
2017-08-02T13:47:32.675Z,977.41
2017-08-02T13:48:42.960Z,977.4
2017-08-02T13:49:52.926Z,977.36
2017-08-02T13:51:03.219Z,977.39
2017-08-02T13:52:13.194Z,977.39
2017-08-02T13:53:23.479Z,977.31
2017-08-02T13:54:33.771Z,977.3
2017-08-02T13:55:44.056Z,977.27
2017-08-02T13:56:54.340Z,977.27
2017-08-02T13:58:04.310Z,977.29
2017-08-02T13:59:14.286Z,977.36
2017-08-02T14:00:24.576Z,977.42
2017-08-02T14:01:34.234Z,977.47
2017-08-02T14:02:44.526Z,977.49
2017-08-02T14:03:54.813Z,977.5
2017-08-02T14:05:04.164Z,977.53
2017-08-02T14:06:14.144Z,977.48
2017-08-02T14:07:24.434Z,977.54
2017-08-02T14:08:34.091Z,977.58
2017-08-02T14:09:44.393Z,977.63
2017-08-02T14:10:54.369Z,977.69
2017-08-02T14:12:04.661Z,977.7
2017-08-02T14:13:14.630Z,977.7
2017-08-02T14:14:24.597Z,977.65
2017-08-02T14:15:34.574Z,977.7
2017-08-02T14:16:44.552Z,977.8
2017-08-02T14:17:54.524Z,977.89
2017-08-02T14:19:04.813Z,977.8
2017-08-02T14:20:15.097Z,977.8
2017-08-02T14:21:25.068Z,977.87
2017-08-02T14:22:34.728Z,977.88
2017-08-02T14:23:44.702Z,977.08
2017-08-02T14:24:54.384Z,977.11
2017-08-02T14:26:04.679Z,976.94
2017-08-02T14:27:14.660Z,977.03
2017-08-02T14:28:24.955Z,977.14
2017-08-02T14:29:34.935Z,977.13
2017-08-02T14:30:45.220Z,977.12
2017-08-02T14:31:55.199Z,977.19
2017-08-02T14:33:05.486Z,977.03
2017-08-02T14:34:15.776Z,977.08
2017-08-02T14:35:26.062Z,977.28
2017-08-02T14:36:36.345Z,977.1
2017-08-02T14:37:46.627Z,977.1
2017-08-02T14:38:56.905Z,977.06